sensor_id;sensor_type;location;lat;lon;timestamp;temperature;humidity
6822;DHT22;3449;48.728;8.968;2023-11-18T00:01:31;3.80;99.90
6822;DHT22;3449;48.728;8.968;2023-11-18T00:03:58;3.80;99.90
6822;DHT22;3449;48.728;8.968;2023-11-18T00:06:25;3.80;99.90
6822;DHT22;3449;48.728;8.968;2023-11-18T00:08:52;3.80;99.90
6822;DHT22;3449;48.728;8.968;2023-11-18T00:11:19;3.80;99.90
6822;DHT22;3449;48.728;8.968;2023-11-18T00:13:46;3.80;99.90
6822;DHT22;3449;48.728;8.968;2023-11-18T00:16:14;3.80;99.90
6822;DHT22;3449;48.728;8.968;2023-11-18T00:18:42;3.90;99.90
6822;DHT22;3449;48.728;8.968;2023-11-18T00:21:09;3.80;99.90
6822;DHT22;3449;48.728;8.968;2023-11-18T00:23:37;3.80;99.90
6822;DHT22;3449;48.728;8.968;2023-11-18T00:26:04;3.80;99.90
6822;DHT22;3449;48.728;8.968;2023-11-18T00:28:32;3.80;99.90
6822;DHT22;3449;48.728;8.968;2023-11-18T00:30:59;3.80;99.90
6822;DHT22;3449;48.728;8.968;2023-11-18T00:33:27;3.80;99.90
6822;DHT22;3449;48.728;8.968;2023-11-18T00:35:54;3.80;99.90
6822;DHT22;3449;48.728;8.968;2023-11-18T00:38:21;3.80;99.90
6822;DHT22;3449;48.728;8.968;2023-11-18T00:40:48;3.80;99.90
6822;DHT22;3449;48.728;8.968;2023-11-18T00:43:14;3.80;99.90
6822;DHT22;3449;48.728;8.968;2023-11-18T00:45:41;3.80;99.90
6822;DHT22;3449;48.728;8.968;2023-11-18T00:48:09;3.80;99.90
6822;DHT22;3449;48.728;8.968;2023-11-18T00:50:37;3.80;99.90
6822;DHT22;3449;48.728;8.968;2023-11-18T00:53:04;3.90;99.90
6822;DHT22;3449;48.728;8.968;2023-11-18T00:55:31;3.90;99.90
6822;DHT22;3449;48.728;8.968;2023-11-18T00:57:58;3.90;99.90
6822;DHT22;3449;48.728;8.968;2023-11-18T01:00:25;3.90;99.90
6822;DHT22;3449;48.728;8.968;2023-11-18T01:02:53;3.80;99.90
6822;DHT22;3449;48.728;8.968;2023-11-18T01:05:21;3.90;99.90
6822;DHT22;3449;48.728;8.968;2023-11-18T01:07:49;3.90;99.90
6822;DHT22;3449;48.728;8.968;2023-11-18T01:10:16;3.90;99.90
6822;DHT22;3449;48.728;8.968;2023-11-18T01:12:44;3.80;99.90
6822;DHT22;3449;48.728;8.968;2023-11-18T01:15:11;3.80;99.90
6822;DHT22;3449;48.728;8.968;2023-11-18T01:17:39;3.80;99.90
6822;DHT22;3449;48.728;8.968;2023-11-18T01:20:07;3.80;99.90
6822;DHT22;3449;48.728;8.968;2023-11-18T01:22:36;3.80;99.90
6822;DHT22;3449;48.728;8.968;2023-11-18T01:25:07;3.80;99.90
6822;DHT22;3449;48.728;8.968;2023-11-18T01:27:34;3.80;99.90
6822;DHT22;3449;48.728;8.968;2023-11-18T01:30:01;3.80;99.90
6822;DHT22;3449;48.728;8.968;2023-11-18T01:32:30;3.80;99.90
6822;DHT22;3449;48.728;8.968;2023-11-18T01:34:56;3.80;99.90
6822;DHT22;3449;48.728;8.968;2023-11-18T01:37:23;3.80;99.90
6822;DHT22;3449;48.728;8.968;2023-11-18T01:39:50;3.80;99.90
6822;DHT22;3449;48.728;8.968;2023-11-18T01:42:18;3.90;99.90
6822;DHT22;3449;48.728;8.968;2023-11-18T01:44:46;3.90;99.90
6822;DHT22;3449;48.728;8.968;2023-11-18T01:47:14;3.90;99.90
6822;DHT22;3449;48.728;8.968;2023-11-18T01:49:41;3.90;99.90
6822;DHT22;3449;48.728;8.968;2023-11-18T01:52:10;3.90;99.90
6822;DHT22;3449;48.728;8.968;2023-11-18T01:54:38;4.00;99.90
6822;DHT22;3449;48.728;8.968;2023-11-18T01:57:06;3.90;99.90
6822;DHT22;3449;48.728;8.968;2023-11-18T01:59:36;4.00;99.90
6822;DHT22;3449;48.728;8.968;2023-11-18T02:02:05;3.90;99.90
6822;DHT22;3449;48.728;8.968;2023-11-18T02:04:32;3.90;99.90
6822;DHT22;3449;48.728;8.968;2023-11-18T02:07:00;3.90;99.90
6822;DHT22;3449;48.728;8.968;2023-11-18T02:09:29;4.00;99.90
6822;DHT22;3449;48.728;8.968;2023-11-18T02:11:59;4.00;99.90
6822;DHT22;3449;48.728;8.968;2023-11-18T02:14:28;4.00;99.90
6822;DHT22;3449;48.728;8.968;2023-11-18T02:17:00;4.00;99.90
6822;DHT22;3449;48.728;8.968;2023-11-18T02:19:29;4.00;99.90
6822;DHT22;3449;48.728;8.968;2023-11-18T02:21:57;4.00;99.90
6822;DHT22;3449;48.728;8.968;2023-11-18T02:24:25;4.00;99.90
6822;DHT22;3449;48.728;8.968;2023-11-18T02:26:56;3.90;99.90
6822;DHT22;3449;48.728;8.968;2023-11-18T02:29:24;3.90;99.90
6822;DHT22;3449;48.728;8.968;2023-11-18T02:31:54;4.00;99.90
6822;DHT22;3449;48.728;8.968;2023-11-18T02:34:27;3.90;99.90
6822;DHT22;3449;48.728;8.968;2023-11-18T02:36:57;3.90;99.90
6822;DHT22;3449;48.728;8.968;2023-11-18T02:39:29;3.90;99.90
6822;DHT22;3449;48.728;8.968;2023-11-18T02:42:01;3.80;99.90
6822;DHT22;3449;48.728;8.968;2023-11-18T02:44:29;3.80;99.90
6822;DHT22;3449;48.728;8.968;2023-11-18T02:46:58;3.70;99.90
6822;DHT22;3449;48.728;8.968;2023-11-18T02:49:25;3.60;99.90
6822;DHT22;3449;48.728;8.968;2023-11-18T02:51:53;3.60;99.90
6822;DHT22;3449;48.728;8.968;2023-11-18T02:54:20;3.50;99.90
6822;DHT22;3449;48.728;8.968;2023-11-18T02:56:47;3.50;99.90
6822;DHT22;3449;48.728;8.968;2023-11-18T02:59:15;3.40;99.90
6822;DHT22;3449;48.728;8.968;2023-11-18T03:01:42;3.40;99.90
6822;DHT22;3449;48.728;8.968;2023-11-18T03:04:09;3.30;99.90
6822;DHT22;3449;48.728;8.968;2023-11-18T03:06:36;3.30;99.90
6822;DHT22;3449;48.728;8.968;2023-11-18T03:09:03;3.30;99.90
6822;DHT22;3449;48.728;8.968;2023-11-18T03:11:32;3.30;99.90
6822;DHT22;3449;48.728;8.968;2023-11-18T03:13:59;3.30;99.90
6822;DHT22;3449;48.728;8.968;2023-11-18T03:16:28;3.30;99.90
6822;DHT22;3449;48.728;8.968;2023-11-18T03:18:54;3.30;99.90
6822;DHT22;3449;48.728;8.968;2023-11-18T03:21:21;3.30;99.90
6822;DHT22;3449;48.728;8.968;2023-11-18T03:23:48;3.30;99.90
6822;DHT22;3449;48.728;8.968;2023-11-18T03:26:15;3.30;99.90
6822;DHT22;3449;48.728;8.968;2023-11-18T03:28:42;3.40;99.90
6822;DHT22;3449;48.728;8.968;2023-11-18T03:31:09;3.40;99.90
6822;DHT22;3449;48.728;8.968;2023-11-18T03:33:38;3.40;99.90
6822;DHT22;3449;48.728;8.968;2023-11-18T03:36:06;3.30;99.90
6822;DHT22;3449;48.728;8.968;2023-11-18T03:38:34;3.30;99.90
6822;DHT22;3449;48.728;8.968;2023-11-18T03:41:01;3.30;99.90
6822;DHT22;3449;48.728;8.968;2023-11-18T03:43:27;3.20;99.90
6822;DHT22;3449;48.728;8.968;2023-11-18T03:45:54;3.20;99.90
6822;DHT22;3449;48.728;8.968;2023-11-18T03:48:22;3.20;99.90
6822;DHT22;3449;48.728;8.968;2023-11-18T03:50:51;3.20;99.90
6822;DHT22;3449;48.728;8.968;2023-11-18T03:53:19;3.10;99.90
6822;DHT22;3449;48.728;8.968;2023-11-18T03:55:46;3.20;99.90
6822;DHT22;3449;48.728;8.968;2023-11-18T03:58:13;3.10;99.90
6822;DHT22;3449;48.728;8.968;2023-11-18T04:00:39;3.10;99.90
6822;DHT22;3449;48.728;8.968;2023-11-18T04:03:06;3.10;99.90
6822;DHT22;3449;48.728;8.968;2023-11-18T04:05:35;3.00;99.90
6822;DHT22;3449;48.728;8.968;2023-11-18T04:08:04;3.00;99.90
6822;DHT22;3449;48.728;8.968;2023-11-18T04:10:32;3.10;99.90
6822;DHT22;3449;48.728;8.968;2023-11-18T04:12:58;3.10;99.90
6822;DHT22;3449;48.728;8.968;2023-11-18T04:15:25;3.10;99.90
6822;DHT22;3449;48.728;8.968;2023-11-18T04:17:52;3.10;99.90
6822;DHT22;3449;48.728;8.968;2023-11-18T04:20:19;3.20;99.90
6822;DHT22;3449;48.728;8.968;2023-11-18T04:22:46;3.10;99.90
6822;DHT22;3449;48.728;8.968;2023-11-18T04:25:14;3.10;99.90
6822;DHT22;3449;48.728;8.968;2023-11-18T04:27:41;3.10;99.90
6822;DHT22;3449;48.728;8.968;2023-11-18T04:30:09;3.10;99.90
6822;DHT22;3449;48.728;8.968;2023-11-18T04:32:36;3.20;99.90
6822;DHT22;3449;48.728;8.968;2023-11-18T04:35:03;3.10;99.90
6822;DHT22;3449;48.728;8.968;2023-11-18T04:37:34;3.20;99.90
6822;DHT22;3449;48.728;8.968;2023-11-18T04:40:01;3.10;99.90
6822;DHT22;3449;48.728;8.968;2023-11-18T04:42:30;3.10;99.90
6822;DHT22;3449;48.728;8.968;2023-11-18T04:44:57;3.10;99.90
6822;DHT22;3449;48.728;8.968;2023-11-18T04:47:24;3.10;99.90
6822;DHT22;3449;48.728;8.968;2023-11-18T04:49:52;3.10;99.90
6822;DHT22;3449;48.728;8.968;2023-11-18T04:52:19;3.10;99.90
6822;DHT22;3449;48.728;8.968;2023-11-18T04:54:46;3.00;99.90
6822;DHT22;3449;48.728;8.968;2023-11-18T04:57:13;3.10;99.90
6822;DHT22;3449;48.728;8.968;2023-11-18T04:59:42;3.20;99.90
6822;DHT22;3449;48.728;8.968;2023-11-18T05:02:09;3.20;99.90
6822;DHT22;3449;48.728;8.968;2023-11-18T05:04:36;3.10;99.90
6822;DHT22;3449;48.728;8.968;2023-11-18T05:07:03;3.20;99.90
6822;DHT22;3449;48.728;8.968;2023-11-18T05:09:32;3.10;99.90
6822;DHT22;3449;48.728;8.968;2023-11-18T05:12:00;3.20;99.90
6822;DHT22;3449;48.728;8.968;2023-11-18T05:14:27;3.20;99.90
6822;DHT22;3449;48.728;8.968;2023-11-18T05:16:56;3.20;99.90
6822;DHT22;3449;48.728;8.968;2023-11-18T05:19:23;3.20;99.90
6822;DHT22;3449;48.728;8.968;2023-11-18T05:21:51;3.20;99.90
6822;DHT22;3449;48.728;8.968;2023-11-18T05:24:19;3.20;99.90
6822;DHT22;3449;48.728;8.968;2023-11-18T05:26:46;3.20;99.90
6822;DHT22;3449;48.728;8.968;2023-11-18T05:29:13;3.10;99.90
6822;DHT22;3449;48.728;8.968;2023-11-18T05:31:42;3.10;99.90
6822;DHT22;3449;48.728;8.968;2023-11-18T05:34:10;3.10;99.90
6822;DHT22;3449;48.728;8.968;2023-11-18T05:36:38;3.10;99.90
6822;DHT22;3449;48.728;8.968;2023-11-18T05:39:05;3.00;99.90
6822;DHT22;3449;48.728;8.968;2023-11-18T05:41:34;3.00;99.90
6822;DHT22;3449;48.728;8.968;2023-11-18T05:44:05;3.00;99.90
6822;DHT22;3449;48.728;8.968;2023-11-18T05:46:34;2.90;99.90
6822;DHT22;3449;48.728;8.968;2023-11-18T05:49:02;2.90;99.90
6822;DHT22;3449;48.728;8.968;2023-11-18T05:51:34;2.90;99.90
6822;DHT22;3449;48.728;8.968;2023-11-18T05:54:01;2.90;99.90
6822;DHT22;3449;48.728;8.968;2023-11-18T05:56:27;2.80;99.90
6822;DHT22;3449;48.728;8.968;2023-11-18T05:58:54;2.80;99.90
6822;DHT22;3449;48.728;8.968;2023-11-18T06:01:21;2.80;99.90
6822;DHT22;3449;48.728;8.968;2023-11-18T06:03:48;2.80;99.90
6822;DHT22;3449;48.728;8.968;2023-11-18T06:06:16;2.70;99.90
6822;DHT22;3449;48.728;8.968;2023-11-18T06:08:44;2.90;99.90
6822;DHT22;3449;48.728;8.968;2023-11-18T06:11:13;2.70;99.90
6822;DHT22;3449;48.728;8.968;2023-11-18T06:13:41;2.70;99.90
6822;DHT22;3449;48.728;8.968;2023-11-18T06:16:15;2.70;99.90
6822;DHT22;3449;48.728;8.968;2023-11-18T06:18:42;2.70;99.90
6822;DHT22;3449;48.728;8.968;2023-11-18T06:21:11;2.70;99.90
6822;DHT22;3449;48.728;8.968;2023-11-18T06:23:38;2.70;99.90
6822;DHT22;3449;48.728;8.968;2023-11-18T06:26:07;2.70;99.90
6822;DHT22;3449;48.728;8.968;2023-11-18T06:28:36;2.70;99.90
6822;DHT22;3449;48.728;8.968;2023-11-18T06:31:04;2.60;99.90
6822;DHT22;3449;48.728;8.968;2023-11-18T06:33:36;2.70;99.90
6822;DHT22;3449;48.728;8.968;2023-11-18T06:36:04;2.70;99.90
6822;DHT22;3449;48.728;8.968;2023-11-18T06:38:31;2.70;99.90
6822;DHT22;3449;48.728;8.968;2023-11-18T06:41:00;2.70;99.90
6822;DHT22;3449;48.728;8.968;2023-11-18T06:43:30;2.70;99.90
6822;DHT22;3449;48.728;8.968;2023-11-18T06:46:07;2.60;99.90
6822;DHT22;3449;48.728;8.968;2023-11-18T06:48:36;2.60;99.90
6822;DHT22;3449;48.728;8.968;2023-11-18T06:51:03;2.60;99.90
6822;DHT22;3449;48.728;8.968;2023-11-18T06:53:33;2.60;99.90
6822;DHT22;3449;48.728;8.968;2023-11-18T06:56:00;2.60;99.90
6822;DHT22;3449;48.728;8.968;2023-11-18T06:58:27;2.50;99.90
6822;DHT22;3449;48.728;8.968;2023-11-18T07:00:55;2.60;99.90
6822;DHT22;3449;48.728;8.968;2023-11-18T07:03:22;2.80;99.90
6822;DHT22;3449;48.728;8.968;2023-11-18T07:05:49;2.60;99.90
6822;DHT22;3449;48.728;8.968;2023-11-18T07:08:16;2.60;99.90
6822;DHT22;3449;48.728;8.968;2023-11-18T07:10:42;2.70;99.90
6822;DHT22;3449;48.728;8.968;2023-11-18T07:13:09;2.80;99.90
6822;DHT22;3449;48.728;8.968;2023-11-18T07:15:36;2.70;99.90
6822;DHT22;3449;48.728;8.968;2023-11-18T07:18:05;2.80;99.90
6822;DHT22;3449;48.728;8.968;2023-11-18T07:20:34;2.80;99.90
6822;DHT22;3449;48.728;8.968;2023-11-18T07:23:01;2.90;99.90
6822;DHT22;3449;48.728;8.968;2023-11-18T07:25:28;3.10;99.90
6822;DHT22;3449;48.728;8.968;2023-11-18T07:27:55;3.10;99.90
6822;DHT22;3449;48.728;8.968;2023-11-18T07:30:22;3.20;99.90
6822;DHT22;3449;48.728;8.968;2023-11-18T07:32:51;3.20;99.90
6822;DHT22;3449;48.728;8.968;2023-11-18T07:35:19;3.30;99.90
6822;DHT22;3449;48.728;8.968;2023-11-18T07:37:46;3.20;99.90
6822;DHT22;3449;48.728;8.968;2023-11-18T07:40:12;3.30;99.90
6822;DHT22;3449;48.728;8.968;2023-11-18T07:42:44;3.30;99.90
6822;DHT22;3449;48.728;8.968;2023-11-18T07:45:11;3.20;99.90
6822;DHT22;3449;48.728;8.968;2023-11-18T07:47:43;3.30;99.90
6822;DHT22;3449;48.728;8.968;2023-11-18T07:50:10;3.30;99.90
6822;DHT22;3449;48.728;8.968;2023-11-18T07:52:39;3.30;99.90
6822;DHT22;3449;48.728;8.968;2023-11-18T07:55:07;3.40;99.90
6822;DHT22;3449;48.728;8.968;2023-11-18T07:57:38;3.40;99.90
6822;DHT22;3449;48.728;8.968;2023-11-18T08:00:07;3.50;99.90
6822;DHT22;3449;48.728;8.968;2023-11-18T08:02:35;3.40;99.90
6822;DHT22;3449;48.728;8.968;2023-11-18T08:05:03;3.40;99.90
6822;DHT22;3449;48.728;8.968;2023-11-18T08:07:33;3.40;99.90
6822;DHT22;3449;48.728;8.968;2023-11-18T08:10:01;3.40;99.90
6822;DHT22;3449;48.728;8.968;2023-11-18T08:12:30;3.40;99.90
6822;DHT22;3449;48.728;8.968;2023-11-18T08:14:56;3.40;99.90
6822;DHT22;3449;48.728;8.968;2023-11-18T08:17:24;3.50;99.90
6822;DHT22;3449;48.728;8.968;2023-11-18T08:19:52;3.40;99.90
6822;DHT22;3449;48.728;8.968;2023-11-18T08:22:19;3.40;99.90
6822;DHT22;3449;48.728;8.968;2023-11-18T08:24:48;3.40;99.90
6822;DHT22;3449;48.728;8.968;2023-11-18T08:27:17;3.50;99.90
6822;DHT22;3449;48.728;8.968;2023-11-18T08:29:44;3.60;99.90
6822;DHT22;3449;48.728;8.968;2023-11-18T08:32:14;3.60;99.90
6822;DHT22;3449;48.728;8.968;2023-11-18T08:34:41;3.60;99.90
6822;DHT22;3449;48.728;8.968;2023-11-18T08:37:08;3.70;99.90
6822;DHT22;3449;48.728;8.968;2023-11-18T08:39:35;3.80;99.90
6822;DHT22;3449;48.728;8.968;2023-11-18T08:42:02;3.80;99.90
6822;DHT22;3449;48.728;8.968;2023-11-18T08:44:30;3.90;99.90
6822;DHT22;3449;48.728;8.968;2023-11-18T08:46:58;4.00;99.90
6822;DHT22;3449;48.728;8.968;2023-11-18T08:49:24;3.90;99.90
6822;DHT22;3449;48.728;8.968;2023-11-18T08:51:55;4.00;99.90
6822;DHT22;3449;48.728;8.968;2023-11-18T08:54:24;4.00;99.90
6822;DHT22;3449;48.728;8.968;2023-11-18T08:57:02;4.10;99.90
6822;DHT22;3449;48.728;8.968;2023-11-18T08:59:31;4.10;99.90
6822;DHT22;3449;48.728;8.968;2023-11-18T09:01:58;4.20;99.90
6822;DHT22;3449;48.728;8.968;2023-11-18T09:04:25;4.30;99.90
6822;DHT22;3449;48.728;8.968;2023-11-18T09:06:53;4.50;99.90
6822;DHT22;3449;48.728;8.968;2023-11-18T09:09:25;4.50;99.90
6822;DHT22;3449;48.728;8.968;2023-11-18T09:11:53;4.60;99.90
6822;DHT22;3449;48.728;8.968;2023-11-18T09:14:22;4.60;99.90
6822;DHT22;3449;48.728;8.968;2023-11-18T09:16:52;4.70;99.90
6822;DHT22;3449;48.728;8.968;2023-11-18T09:19:21;4.70;99.90
6822;DHT22;3449;48.728;8.968;2023-11-18T09:21:48;4.70;99.90
6822;DHT22;3449;48.728;8.968;2023-11-18T09:24:17;4.70;99.90
6822;DHT22;3449;48.728;8.968;2023-11-18T09:26:45;4.80;99.90
6822;DHT22;3449;48.728;8.968;2023-11-18T09:29:15;4.80;99.90
6822;DHT22;3449;48.728;8.968;2023-11-18T09:31:43;4.80;99.90
6822;DHT22;3449;48.728;8.968;2023-11-18T09:34:15;4.90;99.90
6822;DHT22;3449;48.728;8.968;2023-11-18T09:36:42;4.90;99.90
6822;DHT22;3449;48.728;8.968;2023-11-18T09:39:09;4.90;99.90
6822;DHT22;3449;48.728;8.968;2023-11-18T09:41:41;5.00;99.90
6822;DHT22;3449;48.728;8.968;2023-11-18T09:44:09;5.10;99.90
6822;DHT22;3449;48.728;8.968;2023-11-18T09:46:41;5.20;99.90
6822;DHT22;3449;48.728;8.968;2023-11-18T09:49:19;5.30;99.90
6822;DHT22;3449;48.728;8.968;2023-11-18T09:51:55;5.60;99.90
6822;DHT22;3449;48.728;8.968;2023-11-18T09:54:27;5.80;99.90
6822;DHT22;3449;48.728;8.968;2023-11-18T09:57:04;5.90;99.90
6822;DHT22;3449;48.728;8.968;2023-11-18T09:59:42;5.90;99.90
6822;DHT22;3449;48.728;8.968;2023-11-18T10:02:11;5.80;99.90
6822;DHT22;3449;48.728;8.968;2023-11-18T10:04:39;5.80;99.90
6822;DHT22;3449;48.728;8.968;2023-11-18T10:07:07;6.00;99.90
6822;DHT22;3449;48.728;8.968;2023-11-18T10:09:35;6.10;99.90
6822;DHT22;3449;48.728;8.968;2023-11-18T10:12:05;6.00;99.90
6822;DHT22;3449;48.728;8.968;2023-11-18T10:14:34;6.00;99.90
6822;DHT22;3449;48.728;8.968;2023-11-18T10:17:03;6.00;99.90
6822;DHT22;3449;48.728;8.968;2023-11-18T10:19:51;6.10;99.90
6822;DHT22;3449;48.728;8.968;2023-11-18T10:22:22;6.00;99.90
6822;DHT22;3449;48.728;8.968;2023-11-18T10:24:50;6.10;99.90
6822;DHT22;3449;48.728;8.968;2023-11-18T10:27:20;6.20;99.90
6822;DHT22;3449;48.728;8.968;2023-11-18T10:29:49;6.20;99.90
6822;DHT22;3449;48.728;8.968;2023-11-18T10:32:17;6.20;99.90
6822;DHT22;3449;48.728;8.968;2023-11-18T10:34:47;6.10;99.90
6822;DHT22;3449;48.728;8.968;2023-11-18T10:37:16;6.10;99.90
6822;DHT22;3449;48.728;8.968;2023-11-18T10:39:46;6.10;99.90
6822;DHT22;3449;48.728;8.968;2023-11-18T10:42:13;6.10;99.90
6822;DHT22;3449;48.728;8.968;2023-11-18T10:44:54;6.10;99.90
6822;DHT22;3449;48.728;8.968;2023-11-18T10:47:24;6.00;99.90
6822;DHT22;3449;48.728;8.968;2023-11-18T10:49:52;6.00;99.90
6822;DHT22;3449;48.728;8.968;2023-11-18T10:52:23;6.10;99.90
6822;DHT22;3449;48.728;8.968;2023-11-18T10:54:51;6.10;99.90
6822;DHT22;3449;48.728;8.968;2023-11-18T10:57:20;6.10;99.90
6822;DHT22;3449;48.728;8.968;2023-11-18T10:59:58;6.10;99.90
6822;DHT22;3449;48.728;8.968;2023-11-18T11:02:27;6.10;99.90
6822;DHT22;3449;48.728;8.968;2023-11-18T11:05:00;6.10;99.90
6822;DHT22;3449;48.728;8.968;2023-11-18T11:07:29;6.10;99.90
6822;DHT22;3449;48.728;8.968;2023-11-18T11:09:57;6.10;99.90
6822;DHT22;3449;48.728;8.968;2023-11-18T11:12:32;6.00;99.90
6822;DHT22;3449;48.728;8.968;2023-11-18T11:15:03;6.00;99.90
6822;DHT22;3449;48.728;8.968;2023-11-18T11:17:34;6.00;99.90
6822;DHT22;3449;48.728;8.968;2023-11-18T11:20:06;6.10;99.90
6822;DHT22;3449;48.728;8.968;2023-11-18T11:22:51;6.10;99.90
6822;DHT22;3449;48.728;8.968;2023-11-18T11:25:26;6.10;99.90
6822;DHT22;3449;48.728;8.968;2023-11-18T11:28:03;6.30;99.90
6822;DHT22;3449;48.728;8.968;2023-11-18T11:30:37;6.30;99.90
6822;DHT22;3449;48.728;8.968;2023-11-18T11:33:14;6.30;99.90
6822;DHT22;3449;48.728;8.968;2023-11-18T11:35:55;6.30;99.90
6822;DHT22;3449;48.728;8.968;2023-11-18T11:38:25;6.40;99.90
6822;DHT22;3449;48.728;8.968;2023-11-18T11:40:54;6.40;99.90
6822;DHT22;3449;48.728;8.968;2023-11-18T11:43:21;6.30;99.90
6822;DHT22;3449;48.728;8.968;2023-11-18T11:45:50;6.10;99.90
6822;DHT22;3449;48.728;8.968;2023-11-18T11:48:20;6.10;99.90
6822;DHT22;3449;48.728;8.968;2023-11-18T11:51:10;6.10;99.90
6822;DHT22;3449;48.728;8.968;2023-11-18T11:53:49;6.10;99.90
6822;DHT22;3449;48.728;8.968;2023-11-18T11:56:18;6.10;99.90
6822;DHT22;3449;48.728;8.968;2023-11-18T11:58:49;6.10;99.90
6822;DHT22;3449;48.728;8.968;2023-11-18T12:01:25;6.10;99.90
6822;DHT22;3449;48.728;8.968;2023-11-18T12:03:56;6.20;99.90
6822;DHT22;3449;48.728;8.968;2023-11-18T12:06:24;6.10;99.90
6822;DHT22;3449;48.728;8.968;2023-11-18T12:08:53;6.20;99.90
6822;DHT22;3449;48.728;8.968;2023-11-18T12:11:20;6.20;99.90
6822;DHT22;3449;48.728;8.968;2023-11-18T12:14:01;6.20;99.90
6822;DHT22;3449;48.728;8.968;2023-11-18T12:17:03;6.20;99.90
6822;DHT22;3449;48.728;8.968;2023-11-18T12:19:40;6.20;99.90
6822;DHT22;3449;48.728;8.968;2023-11-18T12:22:13;6.20;99.90
6822;DHT22;3449;48.728;8.968;2023-11-18T12:28:08;6.20;99.90
6822;DHT22;3449;48.728;8.968;2023-11-18T12:30:44;6.20;99.90
6822;DHT22;3449;48.728;8.968;2023-11-18T12:34:00;6.20;99.90
6822;DHT22;3449;48.728;8.968;2023-11-18T12:42:59;6.30;99.90
6822;DHT22;3449;48.728;8.968;2023-11-18T12:46:00;6.30;99.90
6822;DHT22;3449;48.728;8.968;2023-11-18T12:48:34;6.30;99.90
6822;DHT22;3449;48.728;8.968;2023-11-18T12:51:05;6.30;99.90
6822;DHT22;3449;48.728;8.968;2023-11-18T12:53:35;6.30;99.90
6822;DHT22;3449;48.728;8.968;2023-11-18T12:56:05;6.30;99.90
6822;DHT22;3449;48.728;8.968;2023-11-18T12:58:32;6.20;99.90
6822;DHT22;3449;48.728;8.968;2023-11-18T13:00:59;6.20;99.90
6822;DHT22;3449;48.728;8.968;2023-11-18T13:03:28;6.20;99.90
6822;DHT22;3449;48.728;8.968;2023-11-18T13:05:55;6.10;99.90
6822;DHT22;3449;48.728;8.968;2023-11-18T13:08:22;6.20;99.90
6822;DHT22;3449;48.728;8.968;2023-11-18T13:10:50;6.20;99.90
6822;DHT22;3449;48.728;8.968;2023-11-18T13:13:20;6.20;99.90
6822;DHT22;3449;48.728;8.968;2023-11-18T13:15:48;6.20;99.90
6822;DHT22;3449;48.728;8.968;2023-11-18T13:18:16;6.20;99.90
6822;DHT22;3449;48.728;8.968;2023-11-18T13:20:54;6.20;99.90
6822;DHT22;3449;48.728;8.968;2023-11-18T13:23:24;6.20;99.90
6822;DHT22;3449;48.728;8.968;2023-11-18T13:25:54;6.20;99.90
6822;DHT22;3449;48.728;8.968;2023-11-18T13:28:24;6.20;99.90
6822;DHT22;3449;48.728;8.968;2023-11-18T13:30:51;6.20;99.90
6822;DHT22;3449;48.728;8.968;2023-11-18T13:33:18;6.20;99.90
6822;DHT22;3449;48.728;8.968;2023-11-18T13:35:46;6.20;99.90
6822;DHT22;3449;48.728;8.968;2023-11-18T13:38:14;6.20;99.90
6822;DHT22;3449;48.728;8.968;2023-11-18T13:40:44;6.20;99.90
6822;DHT22;3449;48.728;8.968;2023-11-18T13:43:12;6.20;99.90
6822;DHT22;3449;48.728;8.968;2023-11-18T13:45:41;6.20;99.90
6822;DHT22;3449;48.728;8.968;2023-11-18T13:48:09;6.10;99.90
6822;DHT22;3449;48.728;8.968;2023-11-18T13:50:40;6.10;99.90
6822;DHT22;3449;48.728;8.968;2023-11-18T13:53:08;6.10;99.90
6822;DHT22;3449;48.728;8.968;2023-11-18T13:55:36;6.10;99.90
6822;DHT22;3449;48.728;8.968;2023-11-18T13:58:05;6.10;99.90
6822;DHT22;3449;48.728;8.968;2023-11-18T14:00:32;6.10;99.90
6822;DHT22;3449;48.728;8.968;2023-11-18T14:03:01;6.00;99.90
6822;DHT22;3449;48.728;8.968;2023-11-18T14:05:33;6.00;99.90
6822;DHT22;3449;48.728;8.968;2023-11-18T14:08:01;6.10;99.90
6822;DHT22;3449;48.728;8.968;2023-11-18T14:10:34;6.10;99.90
6822;DHT22;3449;48.728;8.968;2023-11-18T14:13:04;6.10;99.90
6822;DHT22;3449;48.728;8.968;2023-11-18T14:15:32;6.10;99.90
6822;DHT22;3449;48.728;8.968;2023-11-18T14:18:02;6.10;99.90
6822;DHT22;3449;48.728;8.968;2023-11-18T14:20:29;6.10;99.90
6822;DHT22;3449;48.728;8.968;2023-11-18T14:22:57;6.10;99.90
6822;DHT22;3449;48.728;8.968;2023-11-18T14:25:23;6.10;99.90
6822;DHT22;3449;48.728;8.968;2023-11-18T14:27:51;6.10;99.90
6822;DHT22;3449;48.728;8.968;2023-11-18T14:30:19;6.10;99.90
6822;DHT22;3449;48.728;8.968;2023-11-18T14:32:45;6.10;99.90
6822;DHT22;3449;48.728;8.968;2023-11-18T14:35:14;6.10;99.90
6822;DHT22;3449;48.728;8.968;2023-11-18T14:37:42;6.10;99.90
6822;DHT22;3449;48.728;8.968;2023-11-18T14:40:11;6.10;99.90
6822;DHT22;3449;48.728;8.968;2023-11-18T14:42:43;6.10;99.90
6822;DHT22;3449;48.728;8.968;2023-11-18T14:45:12;6.10;99.90
6822;DHT22;3449;48.728;8.968;2023-11-18T14:47:39;6.20;99.90
6822;DHT22;3449;48.728;8.968;2023-11-18T14:50:07;6.20;99.90
6822;DHT22;3449;48.728;8.968;2023-11-18T14:52:44;6.20;99.90
6822;DHT22;3449;48.728;8.968;2023-11-18T14:55:12;6.20;99.90
6822;DHT22;3449;48.728;8.968;2023-11-18T14:57:39;6.20;99.90
6822;DHT22;3449;48.728;8.968;2023-11-18T15:00:07;6.20;99.90
6822;DHT22;3449;48.728;8.968;2023-11-18T15:02:45;6.20;99.90
6822;DHT22;3449;48.728;8.968;2023-11-18T15:05:13;6.20;99.90
6822;DHT22;3449;48.728;8.968;2023-11-18T15:07:45;6.20;99.90
6822;DHT22;3449;48.728;8.968;2023-11-18T15:10:16;6.20;99.90
6822;DHT22;3449;48.728;8.968;2023-11-18T15:12:47;6.10;99.90
6822;DHT22;3449;48.728;8.968;2023-11-18T15:15:14;6.20;99.90
6822;DHT22;3449;48.728;8.968;2023-11-18T15:17:45;6.20;99.90
6822;DHT22;3449;48.728;8.968;2023-11-18T15:20:12;6.10;99.90
6822;DHT22;3449;48.728;8.968;2023-11-18T15:22:40;6.10;99.90
6822;DHT22;3449;48.728;8.968;2023-11-18T15:25:12;6.10;99.90
6822;DHT22;3449;48.728;8.968;2023-11-18T15:27:42;6.10;99.90
6822;DHT22;3449;48.728;8.968;2023-11-18T15:30:10;6.10;99.90
6822;DHT22;3449;48.728;8.968;2023-11-18T15:32:38;6.10;99.90
6822;DHT22;3449;48.728;8.968;2023-11-18T15:35:07;6.10;99.90
6822;DHT22;3449;48.728;8.968;2023-11-18T15:37:35;6.10;99.90
6822;DHT22;3449;48.728;8.968;2023-11-18T15:40:05;6.10;99.90
6822;DHT22;3449;48.728;8.968;2023-11-18T15:42:39;6.10;99.90
6822;DHT22;3449;48.728;8.968;2023-11-18T15:45:08;6.00;99.90
6822;DHT22;3449;48.728;8.968;2023-11-18T15:47:36;6.10;99.90
6822;DHT22;3449;48.728;8.968;2023-11-18T15:50:05;6.00;99.90
6822;DHT22;3449;48.728;8.968;2023-11-18T15:52:33;6.00;99.90
6822;DHT22;3449;48.728;8.968;2023-11-18T15:55:01;6.00;99.90
6822;DHT22;3449;48.728;8.968;2023-11-18T15:57:27;6.00;99.90
6822;DHT22;3449;48.728;8.968;2023-11-18T15:59:56;6.00;99.90
6822;DHT22;3449;48.728;8.968;2023-11-18T16:02:23;6.00;99.90
6822;DHT22;3449;48.728;8.968;2023-11-18T16:04:50;6.00;99.90
6822;DHT22;3449;48.728;8.968;2023-11-18T16:07:17;6.00;99.90
6822;DHT22;3449;48.728;8.968;2023-11-18T16:09:44;6.00;99.90
6822;DHT22;3449;48.728;8.968;2023-11-18T16:12:11;6.00;99.90
6822;DHT22;3449;48.728;8.968;2023-11-18T16:14:38;5.90;99.90
6822;DHT22;3449;48.728;8.968;2023-11-18T16:17:07;6.00;99.90
6822;DHT22;3449;48.728;8.968;2023-11-18T16:19:34;6.00;99.90
6822;DHT22;3449;48.728;8.968;2023-11-18T16:22:02;6.00;99.90
6822;DHT22;3449;48.728;8.968;2023-11-18T16:24:30;6.00;99.90
6822;DHT22;3449;48.728;8.968;2023-11-18T16:26:57;6.00;99.90
6822;DHT22;3449;48.728;8.968;2023-11-18T16:29:24;6.00;99.90
6822;DHT22;3449;48.728;8.968;2023-11-18T16:31:51;5.90;99.90
6822;DHT22;3449;48.728;8.968;2023-11-18T16:34:19;6.00;99.90
6822;DHT22;3449;48.728;8.968;2023-11-18T16:36:47;6.00;99.90
6822;DHT22;3449;48.728;8.968;2023-11-18T16:39:15;6.00;99.90